createdAt,value
2018-04-24T00:02:05.857Z,100973.20
2018-04-24T00:04:33.432Z,100976.41
2018-04-24T00:07:01.009Z,100973.20
2018-04-24T00:09:28.581Z,100971.09
2018-04-24T00:11:56.221Z,100977.73
2018-04-24T00:14:23.805Z,100975.23
2018-04-24T00:16:52.196Z,100974.01
2018-04-24T00:19:20.683Z,100976.63
2018-04-24T00:21:48.268Z,100969.69
2018-04-24T00:24:15.868Z,100977.43
2018-04-24T00:26:43.445Z,100970.58
2018-04-24T00:29:11.024Z,100969.73
2018-04-24T00:31:38.601Z,100974.98
2018-04-24T00:34:06.181Z,100972.09
2018-04-24T00:36:33.758Z,100977.26
2018-04-24T00:39:01.359Z,100977.17
2018-04-24T00:41:28.964Z,100978.36
2018-04-24T00:43:57.381Z,100981.53
2018-04-24T00:46:25.078Z,100987.57
2018-04-24T00:48:52.687Z,100988.25
2018-04-24T00:51:20.333Z,100986.66
2018-04-24T00:53:47.953Z,100993.36
2018-04-24T00:56:15.530Z,100987.52
2018-04-24T00:58:43.112Z,100998.29
2018-04-24T01:01:10.689Z,100998.88
2018-04-24T01:03:38.270Z,100999.59
2018-04-24T01:06:05.970Z,100995.78
2018-04-24T01:08:34.468Z,101008.61
2018-04-24T01:11:02.081Z,101013.37
2018-04-24T01:13:29.671Z,101008.88
2018-04-24T01:15:58.025Z,101015.12
2018-04-24T01:18:26.521Z,101016.05
2018-04-24T01:20:54.917Z,101011.78
2018-04-24T01:23:22.493Z,101013.45
2018-04-24T01:25:50.928Z,101003.16
2018-04-24T01:28:19.441Z,101001.75
2018-04-24T01:30:47.933Z,101012.32
2018-04-24T01:33:16.405Z,101018.19
2018-04-24T01:35:43.984Z,101018.27
2018-04-24T01:38:11.570Z,101018.30
2018-04-24T01:40:39.976Z,101023.05
2018-04-24T01:43:08.391Z,101025.10
2018-04-24T01:45:36.762Z,101024.73
2018-04-24T01:48:04.344Z,101023.36
2018-04-24T01:50:32.727Z,101019.41
2018-04-24T01:53:01.093Z,101023.67
2018-04-24T01:55:28.665Z,101015.44
2018-04-24T01:57:56.238Z,101012.55
2018-04-24T02:00:24.549Z,101020.92
2018-04-24T02:02:52.190Z,101022.48
2018-04-24T02:05:19.836Z,101018.16
2018-04-24T02:07:48.398Z,101018.69
2018-04-24T02:10:16.013Z,101029.00
2018-04-24T02:12:44.382Z,101028.41
2018-04-24T02:15:11.955Z,101029.14
2018-04-24T02:17:39.528Z,101033.19
2018-04-24T02:20:07.101Z,101035.94
2018-04-24T02:22:34.752Z,101034.78
2018-04-24T02:25:02.363Z,101034.44
2018-04-24T02:27:30.005Z,101036.75
2018-04-24T02:29:57.668Z,101036.53
2018-04-24T02:32:25.245Z,101042.15
2018-04-24T02:34:52.821Z,101045.88
2018-04-24T02:37:20.462Z,101053.82
2018-04-24T02:39:48.117Z,101056.26
2018-04-24T02:42:15.693Z,101063.33
2018-04-24T02:44:43.312Z,101058.14
2018-04-24T02:47:11.807Z,101059.96
2018-04-24T02:49:39.485Z,101060.05
2018-04-24T02:52:07.057Z,101058.27
2018-04-24T02:54:34.628Z,101060.46
2018-04-24T02:57:02.215Z,101059.23
2018-04-24T02:59:29.795Z,101056.08
2018-04-24T03:01:57.393Z,101058.58
2018-04-24T03:04:24.998Z,101060.31
2018-04-24T03:06:52.579Z,101054.34
2018-04-24T03:09:20.150Z,101060.46
2018-04-24T03:11:47.733Z,101049.04
2018-04-24T03:14:15.313Z,101051.43
2018-04-24T03:16:43.817Z,101040.13
2018-04-24T03:19:12.182Z,101053.97
2018-04-24T03:21:40.518Z,101042.20
2018-04-24T03:24:08.960Z,101045.62
2018-04-24T03:26:36.532Z,101039.77
2018-04-24T03:29:04.145Z,101037.38
2018-04-24T03:31:31.806Z,101039.67
2018-04-24T03:33:59.382Z,101027.19
2018-04-24T03:36:28.056Z,101012.64
2018-04-24T03:38:55.623Z,101018.59
2018-04-24T03:41:23.232Z,101005.91
2018-04-24T03:43:50.998Z,101007.04
2018-04-24T03:46:18.576Z,101012.98
2018-04-24T03:48:47.093Z,101024.10
2018-04-24T03:51:14.679Z,101009.34
2018-04-24T03:53:42.249Z,101007.46
2018-04-24T03:56:09.823Z,101001.59
2018-04-24T03:58:37.401Z,101017.91
2018-04-24T04:01:05.053Z,101025.72
2018-04-24T04:03:32.633Z,101024.41
2018-04-24T04:06:00.216Z,101027.34
2018-04-24T04:08:27.801Z,101022.27
2018-04-24T04:10:55.379Z,101034.72
2018-04-24T04:13:22.955Z,101036.61
2018-04-24T04:15:50.635Z,101038.27
2018-04-24T04:18:30.101Z,101030.12
2018-04-24T04:24:11.442Z,101024.30
2018-04-24T04:26:40.033Z,101016.73
2018-04-24T04:29:08.429Z,101017.74
2018-04-24T04:31:36.773Z,101020.33
2018-04-24T04:34:05.289Z,101015.72
2018-04-24T04:36:33.813Z,101015.55
2018-04-24T04:39:01.399Z,101016.62
2018-04-24T04:41:29.005Z,101020.20
2018-04-24T04:43:57.370Z,101027.48
2018-04-24T04:46:24.954Z,101026.47
2018-04-24T04:48:53.437Z,101029.52
2018-04-24T04:51:21.097Z,101039.20
2018-04-24T04:53:49.879Z,101039.03
2018-04-24T04:56:17.474Z,101039.81
2018-04-24T04:58:45.210Z,101027.20
2018-04-24T05:01:12.879Z,101019.66
2018-04-24T05:03:41.447Z,101016.29
2018-04-24T05:06:09.026Z,101020.30
2018-04-24T05:08:37.596Z,101027.08
2018-04-24T05:11:06.053Z,101018.31
2018-04-24T05:13:33.662Z,101015.53
2018-04-24T05:16:01.350Z,101016.09
2018-04-24T05:18:29.045Z,101021.42
2018-04-24T05:20:56.641Z,101006.00
2018-04-24T05:23:24.221Z,100999.12
2018-04-24T05:25:51.897Z,101001.66
2018-04-24T05:28:19.564Z,101000.94
2018-04-24T05:30:47.143Z,100999.87
2018-04-24T05:33:14.750Z,101000.25
2018-04-24T05:35:42.456Z,101000.52
2018-04-24T05:38:10.937Z,100988.71
2018-04-24T05:40:38.538Z,100999.72
2018-04-24T05:43:06.119Z,100987.84
2018-04-24T05:45:33.738Z,100979.68
2018-04-24T05:48:01.340Z,100967.06
2018-04-24T05:50:28.922Z,100989.13
2018-04-24T05:52:57.297Z,100988.36
2018-04-24T05:55:25.762Z,100987.80
2018-04-24T05:57:54.320Z,100999.67
2018-04-24T06:00:21.893Z,100997.78
2018-04-24T06:02:49.473Z,101002.70
2018-04-24T06:05:17.080Z,100996.41
2018-04-24T06:07:45.434Z,100990.30
2018-04-24T06:10:13.116Z,100993.61
2018-04-24T06:12:40.786Z,100992.50
2018-04-24T06:15:08.383Z,100986.30
2018-04-24T06:17:36.776Z,100994.19
2018-04-24T06:20:04.357Z,101000.95
2018-04-24T06:22:32.793Z,100998.03
2018-04-24T06:25:00.337Z,101003.89
2018-04-24T06:27:27.990Z,100996.45
2018-04-24T06:29:55.569Z,100982.87
2018-04-24T06:32:23.208Z,100967.80
2018-04-24T06:34:50.790Z,100970.62
2018-04-24T06:37:18.440Z,100980.86
2018-04-24T06:39:46.101Z,100999.69
2018-04-24T06:42:14.601Z,101003.70
2018-04-24T06:44:43.172Z,100994.05
2018-04-24T06:47:10.794Z,100988.94
2018-04-24T06:49:38.368Z,100986.02
2018-04-24T06:52:05.945Z,100983.86
2018-04-24T06:54:33.613Z,100989.34
2018-04-24T06:57:02.098Z,100979.07
2018-04-24T06:59:29.679Z,100982.48
2018-04-24T07:01:57.426Z,100981.79
2018-04-24T07:04:25.014Z,100979.49
2018-04-24T07:06:52.781Z,100981.38
2018-04-24T07:09:21.138Z,100972.20
2018-04-24T07:11:48.721Z,100969.80
2018-04-24T07:14:17.205Z,100967.17
2018-04-24T07:16:45.657Z,100964.94
2018-04-24T07:19:13.233Z,100959.32
2018-04-24T07:21:40.879Z,100967.20
2018-04-24T07:24:08.508Z,100968.95
2018-04-24T07:26:36.111Z,100960.99
2018-04-24T07:29:04.481Z,100958.95
2018-04-24T07:31:32.057Z,100957.68
2018-04-24T07:33:59.664Z,100954.77
2018-04-24T07:36:27.236Z,100956.09
2018-04-24T07:38:54.840Z,100951.03
2018-04-24T07:41:22.415Z,100944.64
2018-04-24T07:43:50.049Z,100936.37
2018-04-24T07:46:17.624Z,100933.13
2018-04-24T07:48:45.227Z,100930.45
2018-04-24T07:51:12.844Z,100926.09
2018-04-24T07:53:40.550Z,100925.83
2018-04-24T07:56:08.132Z,100925.23
2018-04-24T07:58:35.737Z,100920.41
2018-04-24T08:01:03.346Z,100926.73
2018-04-24T08:03:30.933Z,100929.28
2018-04-24T08:05:58.528Z,100925.52
2018-04-24T08:08:26.929Z,100920.93
2018-04-24T08:10:55.719Z,100915.70
2018-04-24T08:13:24.073Z,100914.80
2018-04-24T08:15:51.656Z,100910.34
2018-04-24T08:18:19.288Z,100901.13
2018-04-24T08:20:47.666Z,100909.56
2018-04-24T08:23:15.245Z,100898.80
2018-04-24T08:25:42.857Z,100895.31
2018-04-24T08:28:10.478Z,100900.05
2018-04-24T08:30:38.089Z,100891.28
2018-04-24T08:33:06.498Z,100891.85
2018-04-24T08:35:34.897Z,100897.53
2018-04-24T08:38:02.486Z,100897.17
2018-04-24T08:40:31.904Z,100897.84
2018-04-24T08:43:00.189Z,100914.97
2018-04-24T08:45:27.769Z,100894.95
2018-04-24T08:47:55.490Z,100897.95
2018-04-24T08:50:23.790Z,100897.58
2018-04-24T08:52:51.410Z,100894.82
2018-04-24T08:55:18.995Z,100899.23
2018-04-24T08:57:46.580Z,100900.94
2018-04-24T09:00:14.934Z,100900.36
2018-04-24T09:02:42.550Z,100883.67
2018-04-24T09:05:10.938Z,100888.39
2018-04-24T09:07:39.341Z,100878.92
2018-04-24T09:10:07.738Z,100877.02
2018-04-24T09:12:36.097Z,100878.31
2018-04-24T09:15:03.708Z,100881.63
2018-04-24T09:17:32.191Z,100879.02
2018-04-24T09:19:59.806Z,100883.51
2018-04-24T09:22:28.073Z,100892.19
2018-04-24T09:24:56.465Z,100888.00
2018-04-24T09:27:24.046Z,100907.16
2018-04-24T09:29:57.262Z,100890.06
2018-04-24T09:32:24.841Z,100889.06
2018-04-24T09:34:52.421Z,100870.95
2018-04-24T09:37:19.998Z,100870.97
2018-04-24T09:39:47.577Z,100872.20
2018-04-24T09:42:15.190Z,100865.14
2018-04-24T09:44:42.769Z,100863.53
2018-04-24T09:47:10.369Z,100879.09
2018-04-24T09:49:38.005Z,100879.25
2018-04-24T09:52:06.465Z,100870.92
2018-04-24T09:54:34.558Z,100877.97
2018-04-24T09:57:02.139Z,100872.92
2018-04-24T09:59:29.716Z,100876.20
2018-04-24T10:01:57.294Z,100872.09
2018-04-24T10:04:24.873Z,100874.48
2018-04-24T10:06:52.454Z,100867.89
2018-04-24T10:09:20.030Z,100866.69
2018-04-24T10:11:47.648Z,100876.92
2018-04-24T10:14:15.226Z,100875.41
2018-04-24T10:16:42.801Z,100885.02
2018-04-24T10:19:10.379Z,100887.80
2018-04-24T10:21:37.954Z,100892.78
2018-04-24T10:24:05.529Z,100890.21
2018-04-24T10:26:33.113Z,100879.09
2018-04-24T10:29:00.693Z,100879.75
2018-04-24T10:31:28.276Z,100878.94
2018-04-24T10:33:55.851Z,100879.88
2018-04-24T10:36:24.035Z,100890.11
2018-04-24T10:38:51.617Z,100886.42
2018-04-24T10:41:19.202Z,100887.06
2018-04-24T10:43:46.821Z,100892.22
2018-04-24T10:46:14.393Z,100878.91
2018-04-24T10:48:42.024Z,100880.23
2018-04-24T10:51:09.600Z,100890.60
2018-04-24T10:53:37.173Z,100891.73
2018-04-24T10:56:04.815Z,100885.11
2018-04-24T10:58:32.354Z,100885.55
2018-04-24T11:00:59.930Z,100881.05
2018-04-24T11:03:27.515Z,100881.41
2018-04-24T11:05:55.094Z,100889.42
2018-04-24T11:08:22.660Z,100887.64
2018-04-24T11:10:50.238Z,100890.73
2018-04-24T11:13:17.845Z,100897.55
2018-04-24T11:15:45.424Z,100890.58
2018-04-24T11:18:12.996Z,100883.64
2018-04-24T11:20:40.568Z,100895.75
2018-04-24T11:23:08.177Z,100902.97
2018-04-24T11:25:36.656Z,100905.22
2018-04-24T11:28:04.344Z,100909.02
2018-04-24T11:30:31.925Z,100910.23
2018-04-24T11:32:59.514Z,100913.31
2018-04-24T11:35:27.094Z,100904.03
2018-04-24T11:37:55.453Z,100908.25
2018-04-24T11:40:23.887Z,100910.56
2018-04-24T11:42:51.469Z,100920.29
2018-04-24T11:45:19.086Z,100920.48
2018-04-24T11:47:46.675Z,100922.69
2018-04-24T11:50:15.084Z,100915.59
2018-04-24T11:52:43.448Z,100922.31
2018-04-24T11:55:11.797Z,100920.10
2018-04-24T11:57:39.381Z,100922.21
2018-04-24T12:00:07.823Z,100918.91
2018-04-24T12:02:36.769Z,100925.20
2018-04-24T12:05:04.314Z,100926.41
2018-04-24T12:07:32.497Z,100919.50
2018-04-24T12:10:00.166Z,100916.06
2018-04-24T12:12:27.789Z,100915.48
2018-04-24T12:14:55.405Z,100907.14
2018-04-24T12:17:22.994Z,100910.42
2018-04-24T12:19:50.568Z,100918.04
2018-04-24T12:22:18.145Z,100923.05
2018-04-24T12:24:45.721Z,100931.05
2018-04-24T12:27:13.298Z,100925.77
2018-04-24T12:29:40.877Z,100917.50
2018-04-24T12:32:08.458Z,100916.58
2018-04-24T12:34:36.033Z,100928.50
2018-04-24T12:37:03.614Z,100930.14
2018-04-24T12:39:31.192Z,100922.64
2018-04-24T12:41:58.807Z,100927.45
2018-04-24T12:44:26.391Z,100922.09
2018-04-24T12:46:54.788Z,100924.25
2018-04-24T12:49:22.368Z,100932.58
2018-04-24T12:51:49.964Z,100925.19
2018-04-24T12:54:17.541Z,100922.66
2018-04-24T12:56:45.121Z,100928.72
2018-04-24T12:59:12.767Z,100918.18
2018-04-24T13:01:40.309Z,100924.09
2018-04-24T13:04:07.918Z,100914.47
2018-04-24T13:06:35.493Z,100917.56
2018-04-24T13:09:03.067Z,100910.68
2018-04-24T13:11:30.638Z,100910.70
2018-04-24T13:13:58.237Z,100911.80
2018-04-24T13:16:25.819Z,100919.08
2018-04-24T13:18:53.390Z,100913.33
2018-04-24T13:21:20.966Z,100913.06
2018-04-24T13:23:48.546Z,100917.09
2018-04-24T13:26:16.127Z,100917.12
2018-04-24T13:28:43.697Z,100912.48
2018-04-24T13:31:11.274Z,100915.13
2018-04-24T13:33:38.854Z,100920.28
2018-04-24T13:36:06.430Z,100916.13
2018-04-24T13:38:34.037Z,100924.90
2018-04-24T13:41:01.625Z,100914.86
2018-04-24T13:43:29.211Z,100919.53
2018-04-24T13:45:56.789Z,100920.66
2018-04-24T13:48:24.365Z,100922.05
2018-04-24T13:50:51.937Z,100923.49
2018-04-24T13:53:19.518Z,100922.19
2018-04-24T13:55:47.103Z,100921.39
2018-04-24T13:58:14.670Z,100922.89
2018-04-24T14:00:42.242Z,100921.31
2018-04-24T14:03:09.812Z,100923.59
2018-04-24T14:05:37.392Z,100923.76
2018-04-24T14:08:04.972Z,100923.45
2018-04-24T14:10:32.558Z,100929.98
2018-04-24T14:13:00.141Z,100925.89
2018-04-24T14:15:27.721Z,100918.75
2018-04-24T14:17:55.298Z,100909.48
2018-04-24T14:20:22.886Z,100908.67
2018-04-24T14:22:50.463Z,100913.96
2018-04-24T14:25:18.076Z,100901.19
2018-04-24T14:27:45.657Z,100901.45
2018-04-24T14:30:13.233Z,100885.56
2018-04-24T14:32:40.859Z,100874.14
2018-04-24T14:35:09.245Z,100868.77
2018-04-24T14:37:36.829Z,100867.27
2018-04-24T14:40:04.405Z,100860.22
2018-04-24T14:42:32.025Z,100869.91
2018-04-24T14:44:59.607Z,100884.84
2018-04-24T14:47:29.026Z,100878.86
2018-04-24T14:49:57.380Z,100884.42
2018-04-24T14:52:24.955Z,100885.23
2018-04-24T14:54:52.532Z,100888.56
2018-04-24T14:57:20.113Z,100889.36
2018-04-24T14:59:47.680Z,100885.23
2018-04-24T15:02:15.263Z,100882.27
2018-04-24T15:04:42.836Z,100882.04
2018-04-24T15:07:10.470Z,100880.33
2018-04-24T15:09:38.021Z,100884.84
2018-04-24T15:12:05.593Z,100882.00
2018-04-24T15:14:33.171Z,100884.03
2018-04-24T15:17:00.749Z,100876.98
2018-04-24T15:19:28.329Z,100871.33
2018-04-24T15:21:55.898Z,100872.38
2018-04-24T15:24:23.472Z,100872.42
2018-04-24T15:26:51.046Z,100880.73
2018-04-24T15:29:18.617Z,100885.36
2018-04-24T15:31:47.101Z,100884.81
2018-04-24T15:34:15.446Z,100883.95
2018-04-24T15:36:43.021Z,100882.80
2018-04-24T15:39:10.640Z,100886.06
2018-04-24T15:41:38.287Z,100886.51
2018-04-24T15:44:06.637Z,100893.31
2018-04-24T15:46:34.905Z,100889.38
2018-04-24T15:49:02.476Z,100885.19
2018-04-24T15:51:30.070Z,100876.84
2018-04-24T15:53:57.644Z,100873.20
2018-04-24T15:56:26.129Z,100876.14
2018-04-24T15:58:53.701Z,100874.88
2018-04-24T16:01:21.276Z,100881.42
2018-04-24T16:03:48.852Z,100881.02
2018-04-24T16:06:16.466Z,100872.80
2018-04-24T16:08:44.047Z,100881.86
2018-04-24T16:11:11.619Z,100882.90
2018-04-24T16:13:39.270Z,100875.46
2018-04-24T16:16:06.805Z,100878.59
2018-04-24T16:18:34.390Z,100875.38
2018-04-24T16:21:02.074Z,100874.06
2018-04-24T16:23:29.656Z,100872.10
2018-04-24T16:25:57.329Z,100878.06
2018-04-24T16:28:24.915Z,100877.89
2018-04-24T16:30:52.489Z,100878.98
2018-04-24T16:33:20.134Z,100881.64
2018-04-24T16:35:47.790Z,100879.86
2018-04-24T16:38:15.561Z,100883.59
2018-04-24T16:40:43.432Z,100878.91
2018-04-24T16:43:11.009Z,100881.36
2018-04-24T16:45:39.057Z,100873.23
2018-04-24T16:48:06.642Z,100871.17
2018-04-24T16:50:34.240Z,100871.63
2018-04-24T16:53:01.812Z,100876.63
2018-04-24T16:55:29.384Z,100873.77
2018-04-24T16:57:57.878Z,100874.27
2018-04-24T17:00:38.351Z,100875.34
2018-04-24T17:03:06.318Z,100872.97
2018-04-24T17:05:33.901Z,100874.41
2018-04-24T17:08:01.478Z,100881.89
2018-04-24T17:10:29.057Z,100879.03
2018-04-24T17:12:56.625Z,100875.98
2018-04-24T17:15:24.202Z,100885.23
2018-04-24T17:17:51.786Z,100880.69
2018-04-24T17:20:19.432Z,100880.02
2018-04-24T17:22:47.063Z,100891.20
2018-04-24T17:25:14.673Z,100880.94
2018-04-24T17:27:42.256Z,100883.16
2018-04-24T17:30:09.901Z,100893.34
2018-04-24T17:32:37.484Z,100892.52
2018-04-24T17:35:05.053Z,100894.45
2018-04-24T17:37:33.656Z,100888.48
2018-04-24T17:40:01.338Z,100889.94
2018-04-24T17:42:28.917Z,100887.16
2018-04-24T17:44:56.521Z,100888.60
2018-04-24T17:47:24.093Z,100882.01
2018-04-24T17:49:52.699Z,100881.51
2018-04-24T17:52:20.374Z,100884.91
2018-04-24T17:54:47.957Z,100875.89
2018-04-24T17:57:15.688Z,100875.02
2018-04-24T17:59:43.352Z,100879.12
2018-04-24T18:02:11.032Z,100877.78
2018-04-24T18:04:38.626Z,100873.40
2018-04-24T18:07:06.193Z,100875.13
2018-04-24T18:09:33.840Z,100872.89
2018-04-24T18:12:01.505Z,100875.41
2018-04-24T18:14:29.094Z,100876.84
2018-04-24T18:16:56.722Z,100879.34
2018-04-24T18:19:24.305Z,100884.55
2018-04-24T18:21:51.885Z,100878.38
2018-04-24T18:24:19.464Z,100875.48
2018-04-24T18:26:47.078Z,100879.80
2018-04-24T18:29:14.769Z,100882.72
2018-04-24T18:31:42.402Z,100878.24
2018-04-24T18:34:10.027Z,100878.52
2018-04-24T18:36:37.622Z,100876.82
2018-04-24T18:39:05.953Z,100880.25
2018-04-24T18:41:33.564Z,100878.05
2018-04-24T18:44:01.961Z,100872.94
2018-04-24T18:46:29.649Z,100870.13
2018-04-24T18:48:57.233Z,100866.91
2018-04-24T18:51:25.091Z,100858.41
2018-04-24T18:53:52.705Z,100857.02
2018-04-24T18:56:20.357Z,100856.58
2018-04-24T18:58:47.998Z,100861.20
2018-04-24T19:01:15.645Z,100853.02
2018-04-24T19:03:43.718Z,100858.97
2018-04-24T19:06:11.303Z,100857.99
2018-04-24T19:08:38.885Z,100855.27
2018-04-24T19:11:06.471Z,100863.02
2018-04-24T19:13:34.059Z,100864.59
2018-04-24T19:16:01.639Z,100861.53
2018-04-24T19:18:34.835Z,100863.73
2018-04-24T19:21:02.475Z,100859.30
2018-04-24T19:23:30.058Z,100862.66
2018-04-24T19:25:58.568Z,100855.09
2018-04-24T19:28:26.783Z,100857.42
2018-04-24T19:30:55.208Z,100852.59
2018-04-24T19:33:23.726Z,100857.73
2018-04-24T19:35:51.326Z,100855.40
2018-04-24T19:38:18.930Z,100856.16
2018-04-24T19:40:52.209Z,100861.36
2018-04-24T19:43:19.885Z,100852.28
2018-04-24T19:45:47.479Z,100854.89
2018-04-24T19:48:20.804Z,100849.05
2018-04-24T19:50:49.172Z,100839.38
2018-04-24T19:53:17.805Z,100855.91
2018-04-24T19:55:46.205Z,100846.70
2018-04-24T19:58:14.708Z,100842.87
2018-04-24T20:00:43.186Z,100845.39
2018-04-24T20:03:11.582Z,100844.00
2018-04-24T20:05:40.097Z,100842.03
2018-04-24T20:08:08.589Z,100838.93
2018-04-24T20:10:36.181Z,100839.41
2018-04-24T20:13:03.818Z,100832.64
2018-04-24T20:15:31.485Z,100829.83
2018-04-24T20:18:00.137Z,100826.81
2018-04-24T20:20:27.714Z,100813.92
2018-04-24T20:22:55.354Z,100820.20
2018-04-24T20:25:22.956Z,100816.63
2018-04-24T20:27:50.532Z,100810.83
2018-04-24T20:30:18.111Z,100808.10
2018-04-24T20:32:45.713Z,100805.47
2018-04-24T20:35:13.293Z,100803.22
2018-04-24T20:37:40.930Z,100800.59
2018-04-24T20:40:09.342Z,100804.19
2018-04-24T20:42:38.026Z,100800.20
2018-04-24T20:45:06.413Z,100794.72
2018-04-24T20:47:34.092Z,100792.36
2018-04-24T20:50:01.646Z,100788.13
2018-04-24T20:52:29.224Z,100791.88
2018-04-24T20:54:56.802Z,100789.52
2018-04-24T20:57:25.338Z,100789.98
2018-04-24T20:59:52.951Z,100789.19
2018-04-24T21:02:20.565Z,100793.30
2018-04-24T21:04:48.177Z,100785.28
2018-04-24T21:07:15.759Z,100781.44
2018-04-24T21:09:43.361Z,100775.63
2018-04-24T21:12:11.005Z,100777.09
2018-04-24T21:14:39.589Z,100776.09
2018-04-24T21:17:07.177Z,100772.95
2018-04-24T21:19:34.790Z,100770.03
2018-04-24T21:22:02.525Z,100767.94
2018-04-24T21:24:30.908Z,100761.42
2018-04-24T21:26:58.493Z,100762.92
2018-04-24T21:29:26.184Z,100762.87
2018-04-24T21:31:53.849Z,100767.62
2018-04-24T21:34:21.508Z,100768.22
2018-04-24T21:36:49.100Z,100763.63
2018-04-24T21:39:16.681Z,100762.10
2018-04-24T21:41:44.297Z,100768.61
2018-04-24T21:44:11.877Z,100765.00
2018-04-24T21:46:39.484Z,100760.41
2018-04-24T21:49:07.061Z,100756.75
2018-04-24T21:51:34.646Z,100754.23
2018-04-24T21:54:02.229Z,100749.67
2018-04-24T21:56:32.799Z,100746.13
2018-04-24T21:59:01.294Z,100745.84
2018-04-24T22:01:28.981Z,100741.70
2018-04-24T22:03:56.557Z,100736.50
2018-04-24T22:06:24.134Z,100730.19
2018-04-24T22:08:52.620Z,100734.17
2018-04-24T22:11:20.196Z,100734.02
2018-04-24T22:13:47.782Z,100732.94
2018-04-24T22:16:15.468Z,100726.80
2018-04-24T22:18:43.044Z,100723.56
2018-04-24T22:21:11.676Z,100727.30
2018-04-24T22:23:39.278Z,100714.75
2018-04-24T22:26:06.893Z,100717.69
2018-04-24T22:28:34.513Z,100711.94
2018-04-24T22:31:02.097Z,100710.08
2018-04-24T22:33:29.675Z,100701.87
2018-04-24T22:35:57.253Z,100704.07
2018-04-24T22:38:24.833Z,100698.83
2018-04-24T22:40:53.182Z,100706.71
2018-04-24T22:43:20.981Z,100709.89
2018-04-24T22:45:48.556Z,100701.97
2018-04-24T22:48:16.140Z,100691.07
2018-04-24T22:50:43.747Z,100690.47
2018-04-24T22:53:11.493Z,100683.34
2018-04-24T22:55:39.073Z,100687.23
2018-04-24T22:58:06.683Z,100677.52
2018-04-24T23:00:34.265Z,100684.61
2018-04-24T23:03:01.878Z,100676.69
2018-04-24T23:05:29.457Z,100676.31
2018-04-24T23:07:57.078Z,100679.95
2018-04-24T23:10:36.317Z,100666.33
2018-04-24T23:13:15.613Z,100667.64
2018-04-24T23:15:54.880Z,100651.61
2018-04-24T23:18:34.195Z,100653.47
2018-04-24T23:21:01.262Z,100654.88
2018-04-24T23:23:29.717Z,100639.98
2018-04-24T23:25:57.334Z,100638.95
2018-04-24T23:28:24.913Z,100633.93
2018-04-24T23:30:53.305Z,100635.95
2018-04-24T23:33:20.949Z,100638.00
2018-04-24T23:35:48.563Z,100628.54
2018-04-24T23:38:16.140Z,100626.91
2018-04-24T23:40:44.653Z,100624.53
2018-04-24T23:43:12.245Z,100620.73
2018-04-24T23:45:39.849Z,100631.77
2018-04-24T23:48:07.426Z,100617.36
2018-04-24T23:50:35.070Z,100608.54
2018-04-24T23:53:03.344Z,100598.27
2018-04-24T23:55:30.924Z,100596.45
2018-04-24T23:57:58.505Z,100590.41
